createdAt,value
2023-05-21T00:00:40.048Z,41.80
2023-05-21T00:04:12.410Z,39.50
2023-05-21T00:06:47.046Z,40.10
2023-05-21T00:10:09.329Z,45.20
2023-05-21T00:13:09.358Z,44.90
2023-05-21T00:16:13.769Z,42.40
2023-05-21T00:19:25.306Z,44.30
2023-05-21T00:22:07.223Z,51.00
2023-05-21T00:24:57.321Z,48.70
2023-05-21T00:28:07.472Z,45.50
2023-05-21T00:31:03.804Z,45.00
2023-05-21T00:33:35.932Z,45.90
2023-05-21T00:36:40.980Z,43.10
2023-05-21T00:39:41.933Z,40.80
2023-05-21T00:42:27.521Z,38.60
2023-05-21T00:45:16.222Z,38.20
2023-05-21T00:47:59.367Z,39.40
2023-05-21T00:51:03.319Z,35.70
2023-05-21T00:53:58.430Z,37.80
2023-05-21T00:56:57.910Z,36.30
2023-05-21T01:00:04.807Z,34.80
2023-05-21T01:03:00.448Z,32.80
2023-05-21T01:05:51.235Z,33.30
2023-05-21T01:09:05.618Z,32.50
2023-05-21T01:12:01.451Z,31.70
2023-05-21T01:14:53.353Z,32.70
2023-05-21T01:17:40.318Z,32.90
2023-05-21T01:20:49.511Z,33.60
2023-05-21T01:23:53.401Z,28.90
2023-05-21T01:26:50.972Z,28.70
2023-05-21T01:29:32.658Z,29.20
2023-05-21T01:32:50.323Z,27.20
2023-05-21T01:36:03.326Z,25.20
2023-05-21T01:39:09.714Z,24.20
2023-05-21T01:42:15.221Z,25.70
2023-05-21T01:45:19.767Z,20.90
2023-05-21T01:48:30.030Z,21.60
2023-05-21T01:51:24.838Z,24.60
2023-05-21T01:54:14.917Z,22.50
2023-05-21T01:57:27.864Z,23.00
2023-05-21T02:00:18.359Z,21.10
2023-05-21T02:03:04.504Z,23.50
2023-05-21T02:05:55.963Z,20.20
2023-05-21T02:08:55.148Z,21.10
2023-05-21T02:11:48.017Z,23.00
2023-05-21T02:14:39.085Z,19.60
2023-05-21T02:17:56.410Z,22.00
2023-05-21T02:20:49.123Z,21.00
2023-05-21T02:23:44.111Z,21.00
2023-05-21T02:27:11.578Z,20.50
2023-05-21T02:29:51.242Z,19.80
2023-05-21T02:32:46.219Z,20.80
2023-05-21T02:36:02.055Z,20.40
2023-05-21T02:38:46.178Z,20.70
2023-05-21T02:41:38.517Z,19.40
2023-05-21T02:44:48.755Z,19.20
2023-05-21T02:47:33.897Z,18.10
2023-05-21T02:50:23.296Z,20.80
2023-05-21T02:53:17.895Z,18.90
2023-05-21T02:55:55.489Z,18.80
2023-05-21T02:58:51.313Z,19.00
2023-05-21T03:01:48.213Z,19.60
2023-05-21T03:04:28.824Z,19.70
2023-05-21T03:07:14.500Z,19.00
2023-05-21T03:10:21.709Z,21.30
2023-05-21T03:13:09.559Z,19.00
2023-05-21T03:15:41.922Z,19.70
2023-05-21T03:18:29.480Z,19.60
2023-05-21T03:21:16.241Z,23.80
2023-05-21T03:23:49.929Z,21.00
2023-05-21T03:26:50.600Z,19.80
2023-05-21T03:29:47.653Z,18.60
2023-05-21T03:32:37.426Z,20.70
2023-05-21T03:35:19.810Z,16.50
2023-05-21T03:38:11.106Z,17.60
2023-05-21T03:40:48.836Z,18.70
2023-05-21T03:43:45.588Z,19.00
2023-05-21T03:46:29.078Z,18.70
2023-05-21T03:49:38.053Z,16.60
2023-05-21T03:52:16.660Z,17.70
2023-05-21T03:54:56.716Z,19.60
2023-05-21T03:57:32.730Z,18.50
2023-05-21T04:00:01.677Z,17.30
2023-05-21T04:02:37.824Z,16.90
2023-05-21T04:05:18.889Z,18.50
2023-05-21T04:07:50.306Z,16.70
2023-05-21T04:10:29.161Z,18.80
2023-05-21T04:13:01.287Z,16.40
2023-05-21T04:15:36.930Z,17.20
2023-05-21T04:18:13.977Z,16.40
2023-05-21T04:21:21.937Z,16.40
2023-05-21T04:24:00.976Z,17.30
2023-05-21T04:26:50.477Z,15.40
2023-05-21T04:29:34.039Z,15.40
2023-05-21T04:32:18.373Z,15.40
2023-05-21T04:34:47.413Z,17.10
2023-05-21T04:37:28.346Z,17.00
2023-05-21T04:39:58.564Z,16.10
2023-05-21T04:42:36.980Z,16.20
2023-05-21T04:45:12.919Z,15.20
2023-05-21T04:47:48.296Z,16.20
2023-05-21T04:50:17.965Z,16.10
2023-05-21T04:52:56.999Z,14.90
2023-05-21T04:55:26.432Z,15.90
2023-05-21T04:57:59.748Z,17.10
2023-05-21T05:00:28.438Z,15.50
2023-05-21T05:02:57.275Z,15.80
2023-05-21T05:05:26.378Z,14.70
2023-05-21T05:07:58.652Z,16.80
2023-05-21T05:10:30.088Z,16.60
2023-05-21T05:13:04.727Z,18.90
2023-05-21T05:15:33.510Z,14.30
2023-05-21T05:18:02.637Z,18.10
2023-05-21T05:20:31.605Z,14.30
2023-05-21T05:23:00.435Z,14.30
2023-05-21T05:25:28.973Z,13.30
2023-05-21T05:28:00.650Z,14.30
2023-05-21T05:30:30.137Z,14.90
2023-05-21T05:33:06.343Z,13.80
2023-05-21T05:35:35.529Z,14.40
2023-05-21T05:38:04.205Z,14.20
2023-05-21T05:40:35.744Z,15.60
2023-05-21T05:43:07.295Z,13.80
2023-05-21T05:45:37.445Z,15.60
2023-05-21T05:48:11.124Z,13.20
2023-05-21T05:50:39.890Z,13.40
2023-05-21T05:53:09.101Z,14.80
2023-05-21T05:55:40.514Z,13.70
2023-05-21T05:58:09.536Z,13.20
2023-05-21T06:00:50.129Z,13.30
2023-05-21T06:03:20.110Z,11.20
2023-05-21T06:05:50.510Z,14.40
2023-05-21T06:08:19.255Z,14.50
2023-05-21T06:10:47.818Z,13.80
2023-05-21T06:13:16.747Z,14.20
2023-05-21T06:15:45.432Z,13.60
2023-05-21T06:18:14.594Z,12.80
2023-05-21T06:20:46.088Z,12.40
2023-05-21T06:23:16.690Z,13.40
2023-05-21T06:25:46.891Z,11.80
2023-05-21T06:28:18.028Z,14.10
2023-05-21T06:30:46.744Z,11.40
2023-05-21T06:33:16.461Z,12.40
2023-05-21T06:35:46.959Z,12.30
2023-05-21T06:38:16.087Z,14.60
2023-05-21T06:40:47.628Z,10.90
2023-05-21T06:43:20.395Z,12.30
2023-05-21T06:46:07.767Z,11.70
2023-05-21T06:48:39.990Z,12.60
2023-05-21T06:51:09.190Z,11.80
2023-05-21T06:53:38.810Z,12.60
2023-05-21T06:56:07.775Z,11.60
2023-05-21T06:58:39.373Z,12.70
2023-05-21T07:01:08.284Z,13.60
2023-05-21T07:03:37.480Z,14.00
2023-05-21T07:06:06.955Z,12.70
2023-05-21T07:08:35.628Z,13.00
2023-05-21T07:11:06.967Z,13.60
2023-05-21T07:13:37.432Z,15.20
2023-05-21T07:16:06.905Z,14.40
2023-05-21T07:18:35.930Z,12.20
2023-05-21T07:21:04.996Z,12.70
2023-05-21T07:23:35.553Z,15.30
2023-05-21T07:26:05.039Z,16.00
2023-05-21T07:28:34.593Z,13.60
2023-05-21T07:31:03.876Z,15.30
2023-05-21T07:33:36.930Z,14.60
2023-05-21T07:36:06.420Z,11.90
2023-05-21T07:38:35.631Z,14.00
2023-05-21T07:41:04.638Z,12.20
2023-05-21T07:43:34.025Z,12.70
2023-05-21T07:46:03.132Z,15.00
2023-05-21T07:48:34.708Z,14.40
2023-05-21T07:51:04.981Z,13.70
2023-05-21T07:53:33.789Z,14.10
2023-05-21T07:56:04.308Z,12.00
2023-05-21T07:58:35.482Z,13.20
2023-05-21T08:01:04.345Z,12.90
2023-05-21T08:03:34.208Z,12.90
2023-05-21T08:06:04.201Z,12.60
2023-05-21T08:08:33.892Z,13.30
2023-05-21T08:11:02.670Z,13.00
2023-05-21T08:13:32.241Z,12.50
2023-05-21T08:16:00.903Z,12.80
2023-05-21T08:18:29.447Z,12.30
2023-05-21T08:20:59.056Z,11.10
2023-05-21T08:23:27.543Z,12.40
2023-05-21T08:25:57.337Z,14.60
2023-05-21T08:28:27.992Z,13.80
2023-05-21T08:30:56.880Z,11.50
2023-05-21T08:33:26.078Z,10.60
2023-05-21T08:35:54.576Z,11.60
2023-05-21T08:38:46.180Z,13.20
2023-05-21T08:41:22.550Z,12.10
2023-05-21T08:43:57.846Z,13.10
2023-05-21T08:46:32.692Z,10.80
2023-05-21T08:49:04.239Z,9.40
2023-05-21T08:51:34.187Z,10.20
2023-05-21T08:54:05.032Z,10.50
2023-05-21T08:56:34.887Z,9.70
2023-05-21T08:59:03.840Z,11.10
2023-05-21T09:01:35.939Z,11.50
2023-05-21T09:04:22.115Z,8.20
2023-05-21T09:06:55.082Z,8.60
2023-05-21T09:09:53.565Z,10.20
2023-05-21T09:12:22.950Z,10.10
2023-05-21T09:14:52.474Z,9.00
2023-05-21T09:17:25.371Z,10.20
2023-05-21T09:20:17.178Z,7.70
2023-05-21T09:22:51.767Z,8.40
2023-05-21T09:25:25.616Z,9.70
2023-05-21T09:27:56.373Z,10.10
2023-05-21T09:30:28.525Z,11.80
2023-05-21T09:33:00.338Z,9.10
2023-05-21T09:35:32.139Z,7.70
2023-05-21T09:38:04.347Z,9.90
2023-05-21T09:40:36.552Z,9.60
2023-05-21T09:43:05.669Z,9.00
2023-05-21T09:45:34.999Z,9.30
2023-05-21T09:48:04.175Z,8.60
2023-05-21T09:50:37.053Z,10.70
2023-05-21T09:53:12.732Z,8.40
2023-05-21T09:55:41.983Z,8.00
2023-05-21T09:58:10.989Z,8.10
2023-05-21T10:00:40.340Z,8.50
2023-05-21T10:03:14.506Z,7.90
2023-05-21T10:05:44.056Z,9.10
2023-05-21T10:08:14.659Z,7.90
2023-05-21T10:10:45.019Z,8.90
2023-05-21T10:13:18.690Z,7.40
2023-05-21T10:15:53.707Z,8.80
2023-05-21T10:18:24.566Z,7.40
2023-05-21T10:20:55.521Z,8.00
2023-05-21T10:23:25.844Z,8.80
2023-05-21T10:25:55.406Z,8.40
2023-05-21T10:28:24.410Z,5.70
2023-05-21T10:30:54.507Z,6.80
2023-05-21T10:34:15.467Z,11.00
2023-05-21T10:36:45.924Z,5.90
2023-05-21T10:39:20.251Z,6.90
2023-05-21T10:42:10.226Z,6.40
2023-05-21T10:45:17.785Z,7.30
2023-05-21T10:48:05.498Z,6.80
2023-05-21T10:50:59.287Z,6.70
2023-05-21T10:54:02.468Z,6.10
2023-05-21T10:57:06.225Z,6.60
2023-05-21T10:59:47.954Z,6.80
2023-05-21T11:02:20.567Z,6.90
2023-05-21T11:05:01.058Z,7.50
2023-05-21T11:07:58.517Z,9.30
2023-05-21T11:10:40.099Z,8.60
2023-05-21T11:13:14.997Z,6.80
2023-05-21T11:16:15.677Z,6.90
2023-05-21T11:18:47.495Z,7.00
2023-05-21T11:21:18.738Z,7.20
2023-05-21T11:23:55.723Z,7.10
2023-05-21T11:26:26.463Z,6.00
2023-05-21T11:29:03.838Z,6.10
2023-05-21T11:31:38.597Z,6.00
2023-05-21T11:34:40.033Z,6.50
2023-05-21T11:37:18.028Z,6.30
2023-05-21T11:39:47.694Z,6.80
2023-05-21T11:42:34.074Z,6.50
2023-05-21T11:45:04.357Z,7.70
2023-05-21T11:47:33.206Z,9.30
2023-05-21T11:50:03.669Z,6.30
2023-05-21T11:52:33.341Z,6.30
2023-05-21T11:55:02.068Z,7.40
2023-05-21T11:57:31.371Z,7.10
2023-05-21T12:00:02.646Z,6.50
2023-05-21T12:02:48.478Z,6.30
2023-05-21T12:05:17.528Z,6.70
2023-05-21T12:07:54.812Z,5.70
2023-05-21T12:10:24.409Z,5.90
2023-05-21T12:12:57.026Z,7.60
2023-05-21T12:15:27.158Z,5.80
2023-05-21T12:17:56.339Z,6.60
2023-05-21T12:20:30.191Z,6.20
2023-05-21T12:22:59.733Z,5.90
2023-05-21T12:25:30.234Z,5.90
2023-05-21T12:27:59.069Z,5.90
2023-05-21T12:30:30.670Z,6.00
2023-05-21T12:33:02.421Z,5.20
2023-05-21T12:35:32.626Z,8.60
2023-05-21T12:38:05.540Z,7.10
2023-05-21T12:40:39.044Z,5.50
2023-05-21T12:43:09.172Z,5.90
2023-05-21T12:45:39.728Z,5.40
2023-05-21T12:48:09.210Z,6.20
2023-05-21T12:50:42.033Z,6.90
2023-05-21T12:53:12.536Z,6.30
2023-05-21T12:55:41.298Z,6.60
2023-05-21T12:58:14.357Z,6.60
2023-05-21T13:00:44.388Z,6.90
2023-05-21T13:03:13.269Z,4.90
2023-05-21T13:05:42.698Z,5.60
2023-05-21T13:08:11.688Z,5.30
2023-05-21T13:10:40.265Z,5.60
2023-05-21T13:13:10.269Z,5.40
2023-05-21T13:15:39.348Z,5.40
2023-05-21T13:18:08.011Z,6.30
2023-05-21T13:20:37.178Z,13.40
2023-05-21T13:23:07.704Z,13.20
2023-05-21T13:25:38.019Z,7.40
2023-05-21T13:28:08.970Z,8.50
2023-05-21T13:30:37.957Z,8.30
2023-05-21T13:33:07.319Z,6.30
2023-05-21T13:35:36.140Z,7.70
2023-05-21T13:38:04.935Z,4.80
2023-05-21T13:40:38.093Z,6.20
2023-05-21T13:43:09.166Z,7.40
2023-05-21T13:45:45.511Z,5.20
2023-05-21T13:48:15.894Z,5.80
2023-05-21T13:50:46.648Z,5.80
2023-05-21T13:53:15.483Z,4.70
2023-05-21T13:55:45.394Z,5.20
2023-05-21T13:58:15.290Z,6.80
2023-05-21T14:00:43.954Z,8.30
2023-05-21T14:03:12.463Z,9.60
2023-05-21T14:05:41.380Z,9.60
2023-05-21T14:08:11.625Z,8.90
2023-05-21T14:10:42.127Z,9.20
2023-05-21T14:13:19.167Z,10.20
2023-05-21T14:15:50.310Z,10.70
2023-05-21T14:18:18.715Z,6.70
2023-05-21T14:20:47.216Z,7.30
2023-05-21T14:23:15.698Z,15.90
2023-05-21T14:25:44.262Z,8.60
2023-05-21T14:28:13.680Z,5.60
2023-05-21T14:30:42.879Z,5.90
2023-05-21T14:33:13.637Z,5.50
2023-05-21T14:35:44.303Z,4.90
2023-05-21T14:38:13.596Z,6.10
2023-05-21T14:40:42.559Z,7.70
2023-05-21T14:43:11.026Z,7.00
2023-05-21T14:45:39.612Z,12.30
2023-05-21T14:48:09.590Z,11.30
2023-05-21T14:50:39.734Z,7.80
2023-05-21T14:53:10.063Z,5.70
2023-05-21T14:55:39.079Z,6.10
2023-05-21T14:58:08.523Z,7.50
2023-05-21T15:00:38.157Z,15.80
2023-05-21T15:03:06.826Z,10.00
2023-05-21T15:05:36.724Z,5.80
2023-05-21T15:08:06.365Z,6.80
2023-05-21T15:10:35.872Z,7.30
2023-05-21T15:13:04.645Z,6.00
2023-05-21T15:15:33.137Z,5.40
2023-05-21T15:18:01.639Z,5.60
2023-05-21T15:20:29.995Z,5.10
2023-05-21T15:25:32.602Z,4.60
2023-05-21T15:28:01.066Z,4.50
2023-05-21T15:30:31.846Z,7.20
2023-05-21T15:33:00.119Z,10.30
2023-05-21T15:35:28.950Z,6.90
2023-05-21T15:37:57.570Z,5.60
2023-05-21T15:40:27.252Z,6.20
2023-05-21T15:42:55.941Z,6.30
2023-05-21T15:45:24.962Z,5.10
2023-05-21T15:47:53.500Z,4.60
2023-05-21T15:50:21.997Z,4.70
2023-05-21T15:52:52.382Z,5.70
2023-05-21T15:55:22.017Z,7.10
2023-05-21T15:57:50.661Z,6.30
2023-05-21T16:00:19.447Z,4.40
2023-05-21T16:02:48.445Z,6.10
2023-05-21T16:05:17.329Z,5.00
2023-05-21T16:07:46.618Z,5.80
2023-05-21T16:10:15.001Z,7.20
2023-05-21T16:12:43.229Z,6.00
2023-05-21T16:15:11.756Z,5.10
2023-05-21T16:17:41.277Z,5.40
2023-05-21T16:20:10.251Z,5.50
2023-05-21T16:22:38.722Z,4.90
2023-05-21T16:25:08.406Z,4.70
2023-05-21T16:27:37.335Z,4.30
2023-05-21T16:30:07.671Z,5.40
2023-05-21T16:32:36.045Z,4.40
2023-05-21T16:35:04.992Z,3.90
2023-05-21T16:37:34.591Z,5.70
2023-05-21T16:40:03.017Z,5.80
2023-05-21T16:42:31.390Z,5.30
2023-05-21T16:45:00.109Z,7.40
2023-05-21T16:47:29.797Z,4.10
2023-05-21T16:49:58.990Z,5.30
2023-05-21T16:52:27.674Z,5.40
2023-05-21T16:54:56.450Z,6.30
2023-05-21T16:57:24.826Z,4.30
2023-05-21T16:59:54.164Z,5.50
2023-05-21T17:02:25.111Z,4.70
2023-05-21T17:04:53.860Z,5.20
2023-05-21T17:07:22.771Z,7.30
2023-05-21T17:09:51.780Z,4.70
2023-05-21T17:12:21.254Z,5.70
2023-05-21T17:14:55.890Z,6.50
2023-05-21T17:17:29.456Z,4.80
2023-05-21T17:19:59.493Z,6.00
2023-05-21T17:22:28.894Z,6.20
2023-05-21T17:24:57.582Z,4.70
2023-05-21T17:27:26.074Z,6.80
2023-05-21T17:29:54.868Z,5.40
2023-05-21T17:32:23.777Z,5.20
2023-05-21T17:34:54.282Z,5.00
2023-05-21T17:37:23.081Z,6.00
2023-05-21T17:39:52.235Z,4.90
2023-05-21T17:42:20.975Z,5.10
2023-05-21T17:44:49.742Z,6.00
2023-05-21T17:47:19.349Z,6.20
2023-05-21T17:49:48.025Z,4.40
2023-05-21T17:52:17.029Z,5.30
2023-05-21T17:54:46.120Z,5.40
2023-05-21T17:57:16.422Z,5.30
2023-05-21T17:59:46.075Z,5.30
2023-05-21T18:02:15.650Z,5.90
2023-05-21T18:04:44.789Z,3.80
2023-05-21T18:07:13.446Z,5.30
2023-05-21T18:09:43.285Z,4.50
2023-05-21T18:12:12.468Z,5.10
2023-05-21T18:14:41.036Z,4.90
2023-05-21T18:17:09.945Z,6.90
2023-05-21T18:19:38.608Z,5.50
2023-05-21T18:22:19.716Z,4.60
2023-05-21T18:24:50.530Z,5.20
2023-05-21T18:27:19.104Z,4.70
2023-05-21T18:29:49.556Z,4.10
2023-05-21T18:32:18.156Z,5.20
2023-05-21T18:34:48.142Z,6.70
2023-05-21T18:37:17.426Z,5.50
2023-05-21T18:39:46.371Z,5.70
2023-05-21T18:42:15.570Z,5.00
2023-05-21T18:44:46.788Z,5.80
2023-05-21T18:47:15.917Z,5.80
2023-05-21T18:49:46.296Z,6.40
2023-05-21T18:52:15.704Z,5.70
2023-05-21T18:54:44.836Z,5.50
2023-05-21T18:57:14.198Z,4.60
2023-05-21T18:59:43.984Z,6.50
2023-05-21T19:02:14.503Z,5.30
2023-05-21T19:04:44.618Z,5.00
2023-05-21T19:07:14.369Z,5.50
2023-05-21T19:09:43.576Z,8.30
2023-05-21T19:12:12.463Z,7.00
2023-05-21T19:14:45.456Z,6.40
2023-05-21T19:17:15.368Z,4.70
2023-05-21T19:19:44.770Z,6.20
2023-05-21T19:22:14.064Z,6.80
2023-05-21T19:24:45.721Z,6.50
2023-05-21T19:27:18.486Z,7.50
2023-05-21T19:29:49.140Z,5.40
2023-05-21T19:32:21.137Z,5.60
2023-05-21T19:34:52.930Z,6.50
2023-05-21T19:37:26.882Z,7.60
2023-05-21T19:39:57.306Z,4.90
2023-05-21T19:42:27.141Z,7.50
2023-05-21T19:44:57.051Z,7.30
2023-05-21T19:47:26.927Z,6.00
2023-05-21T19:49:57.209Z,6.10
2023-05-21T19:52:27.249Z,5.40
2023-05-21T19:55:04.999Z,6.80
2023-05-21T19:57:35.077Z,6.90
2023-05-21T20:00:05.761Z,8.40
2023-05-21T20:02:41.617Z,6.00
2023-05-21T20:05:11.880Z,4.80
2023-05-21T20:07:42.132Z,7.80
2023-05-21T20:10:12.070Z,8.10
2023-05-21T20:12:41.763Z,7.10
2023-05-21T20:15:13.746Z,6.90
2023-05-21T20:17:44.527Z,4.80
2023-05-21T20:20:14.947Z,6.10
2023-05-21T20:22:45.472Z,6.70
2023-05-21T20:25:15.540Z,6.70
2023-05-21T20:27:44.935Z,5.70
2023-05-21T20:30:14.463Z,7.50
2023-05-21T20:32:43.270Z,4.90
2023-05-21T20:35:13.234Z,6.10
2023-05-21T20:37:42.532Z,5.80
2023-05-21T20:40:14.675Z,5.40
2023-05-21T20:42:45.655Z,6.50
2023-05-21T20:45:16.578Z,7.60
2023-05-21T20:47:47.530Z,5.50
2023-05-21T20:50:18.003Z,7.20
2023-05-21T20:52:47.407Z,7.40
2023-05-21T20:55:17.260Z,7.70
2023-05-21T20:57:47.878Z,8.00
2023-05-21T21:00:17.295Z,6.70
2023-05-21T21:02:46.514Z,8.60
2023-05-21T21:05:17.044Z,5.50
2023-05-21T21:07:46.105Z,7.20
2023-05-21T21:10:15.667Z,6.50
2023-05-21T21:12:44.931Z,7.50
2023-05-21T21:15:14.127Z,7.20
2023-05-21T21:17:42.922Z,7.20
2023-05-21T21:20:13.832Z,7.60
2023-05-21T21:22:42.534Z,9.20
2023-05-21T21:25:11.638Z,8.60
2023-05-21T21:27:40.512Z,11.00
2023-05-21T21:30:12.309Z,7.40
2023-05-21T21:32:41.630Z,7.60
2023-05-21T21:35:11.018Z,6.80
2023-05-21T21:37:40.021Z,8.60
2023-05-21T21:40:12.681Z,7.70
2023-05-21T21:42:42.770Z,7.80
2023-05-21T21:45:11.761Z,7.30
2023-05-21T21:47:40.456Z,6.20
2023-05-21T21:50:09.753Z,7.20
2023-05-21T21:52:41.935Z,6.80
2023-05-21T21:55:11.434Z,7.70
2023-05-21T21:57:40.221Z,6.80
2023-05-21T22:00:11.582Z,6.80
2023-05-21T22:02:40.535Z,5.60
2023-05-21T22:05:09.766Z,7.60
2023-05-21T22:07:39.026Z,6.80
2023-05-21T22:10:09.049Z,7.30
2023-05-21T22:12:38.270Z,7.20
2023-05-21T22:15:08.130Z,6.30
2023-05-21T22:17:39.397Z,6.10
2023-05-21T22:20:10.632Z,7.30
2023-05-21T22:22:41.613Z,6.70
2023-05-21T22:25:10.523Z,8.60
2023-05-21T22:27:42.453Z,7.40
2023-05-21T22:30:11.773Z,8.90
2023-05-21T22:32:43.474Z,6.90
2023-05-21T22:35:12.944Z,5.30
2023-05-21T22:37:44.182Z,6.80
2023-05-21T22:40:17.988Z,6.90
2023-05-21T22:42:49.235Z,5.90
2023-05-21T22:45:24.077Z,10.00
2023-05-21T22:47:56.990Z,8.10
2023-05-21T22:50:41.689Z,9.00
2023-05-21T22:53:10.711Z,7.50
2023-05-21T22:55:42.585Z,7.10
2023-05-21T22:58:14.280Z,7.00
2023-05-21T23:00:44.450Z,7.60
2023-05-21T23:03:13.782Z,7.50
2023-05-21T23:05:43.020Z,6.50
2023-05-21T23:08:11.946Z,8.90
2023-05-21T23:10:42.984Z,6.60
2023-05-21T23:13:13.027Z,6.30
2023-05-21T23:15:44.575Z,6.90
2023-05-21T23:18:13.614Z,8.30
2023-05-21T23:20:43.997Z,7.20
2023-05-21T23:23:18.390Z,6.60
2023-05-21T23:25:48.097Z,7.30
2023-05-21T23:28:20.755Z,8.00
2023-05-21T23:30:49.578Z,6.70
2023-05-21T23:33:18.663Z,6.30
2023-05-21T23:35:47.682Z,8.50
2023-05-21T23:38:16.241Z,5.90
2023-05-21T23:40:45.022Z,7.00
2023-05-21T23:43:13.822Z,7.10
2023-05-21T23:45:42.837Z,7.10
2023-05-21T23:48:14.184Z,7.60
2023-05-21T23:50:43.695Z,7.40
2023-05-21T23:53:15.331Z,8.40
2023-05-21T23:55:47.699Z,7.10
2023-05-21T23:58:16.685Z,9.30
